createdAt,value
2019-02-17T00:01:20.114Z,100773.52
2019-02-17T00:03:50.963Z,100771.58
2019-02-17T00:06:21.402Z,100772.96
2019-02-17T00:08:51.878Z,100773.17
2019-02-17T00:11:22.430Z,100775.94
2019-02-17T00:13:53.217Z,100775.55
2019-02-17T00:16:24.045Z,100777.39
2019-02-17T00:18:54.490Z,100778.32
2019-02-17T00:21:24.962Z,100778.98
2019-02-17T00:23:55.398Z,100776.71
2019-02-17T00:26:26.570Z,100778.18
2019-02-17T00:28:59.601Z,100770.58
2019-02-17T00:31:29.210Z,100771.02
2019-02-17T00:33:59.702Z,100778.79
2019-02-17T00:36:30.466Z,100775.98
2019-02-17T00:39:00.913Z,100775.06
2019-02-17T00:41:31.406Z,100774.14
2019-02-17T00:44:01.950Z,100770.02
2019-02-17T00:46:33.207Z,100774.72
2019-02-17T00:49:03.715Z,100776.77
2019-02-17T00:51:34.200Z,100774.98
2019-02-17T00:54:04.639Z,100773.73
2019-02-17T00:56:35.123Z,100776.77
2019-02-17T00:59:10.140Z,100773.02
2019-02-17T01:01:38.183Z,100772.06
2019-02-17T01:04:09.254Z,100769.87
2019-02-17T01:06:39.700Z,100772.38
2019-02-17T01:09:10.204Z,100775.81
2019-02-17T01:11:40.716Z,100776.62
2019-02-17T01:14:11.540Z,100774.62
2019-02-17T01:16:42.380Z,100770.75
2019-02-17T01:19:13.399Z,100764.00
2019-02-17T01:21:43.867Z,100767.41
2019-02-17T01:24:14.318Z,100762.03
2019-02-17T01:26:44.811Z,100768.41
2019-02-17T01:29:20.425Z,100769.85
2019-02-17T01:31:48.458Z,100770.08
2019-02-17T01:34:18.949Z,100766.88
2019-02-17T01:36:49.715Z,100761.66
2019-02-17T01:39:20.158Z,100765.18
2019-02-17T01:41:50.667Z,100766.51
2019-02-17T01:44:21.487Z,100759.72
2019-02-17T01:46:51.930Z,100760.45
2019-02-17T01:49:22.851Z,100757.31
2019-02-17T01:51:53.302Z,100756.52
2019-02-17T01:54:23.742Z,100758.42
2019-02-17T01:56:54.231Z,100759.81
2019-02-17T01:59:30.576Z,100757.55
2019-02-17T02:01:57.262Z,100758.19
2019-02-17T02:04:27.754Z,100758.30
2019-02-17T02:06:58.359Z,100754.39
2019-02-17T02:09:29.199Z,100749.20
2019-02-17T02:12:00.147Z,100744.34
2019-02-17T02:14:30.753Z,100739.11
2019-02-17T02:17:01.194Z,100749.69
2019-02-17T02:19:31.684Z,100739.19
2019-02-17T02:22:02.132Z,100740.86
2019-02-17T02:24:32.847Z,100738.21
2019-02-17T02:27:03.739Z,100735.14
2019-02-17T02:29:41.170Z,100729.95
2019-02-17T02:32:06.756Z,100730.59
2019-02-17T02:34:37.232Z,100730.02
2019-02-17T02:37:07.688Z,100725.92
2019-02-17T02:39:38.476Z,100727.55
2019-02-17T02:42:08.917Z,100722.89
2019-02-17T02:44:39.535Z,100723.95
2019-02-17T02:47:10.024Z,100730.02
2019-02-17T02:49:40.460Z,100732.71
2019-02-17T02:52:10.931Z,100730.89
2019-02-17T02:54:41.409Z,100726.53
2019-02-17T02:57:11.863Z,100726.72
2019-02-17T02:59:52.220Z,100724.27
2019-02-17T03:02:14.962Z,100715.47
2019-02-17T03:04:45.414Z,100720.09
2019-02-17T03:07:18.922Z,100715.50
2019-02-17T03:09:49.708Z,100710.27
2019-02-17T03:12:20.147Z,100713.27
2019-02-17T03:14:51.550Z,100703.83
2019-02-17T03:17:22.015Z,100708.83
2019-02-17T03:19:52.664Z,100703.00
2019-02-17T03:22:23.295Z,100700.88
2019-02-17T03:24:54.633Z,100699.28
2019-02-17T03:27:25.195Z,100703.41
2019-02-17T03:30:05.194Z,100707.25
2019-02-17T03:32:29.179Z,100712.78
2019-02-17T03:34:59.621Z,100717.55
2019-02-17T03:37:30.312Z,100708.30
2019-02-17T03:40:02.030Z,100705.01
2019-02-17T03:42:33.543Z,100702.09
2019-02-17T03:45:05.202Z,100708.27
2019-02-17T03:47:35.722Z,100703.52
2019-02-17T03:50:06.366Z,100703.75
2019-02-17T03:52:36.858Z,100700.34
2019-02-17T03:55:07.420Z,100696.85
2019-02-17T03:57:37.994Z,100694.61
2019-02-17T04:00:16.395Z,100695.64
2019-02-17T04:02:40.612Z,100697.80
2019-02-17T04:05:11.088Z,100691.02
2019-02-17T04:07:41.530Z,100687.27
2019-02-17T04:10:12.012Z,100694.42
2019-02-17T04:12:42.449Z,100689.73
2019-02-17T04:15:13.966Z,100694.87
2019-02-17T04:17:44.410Z,100695.52
2019-02-17T04:20:14.863Z,100694.36
2019-02-17T04:22:45.352Z,100692.54
2019-02-17T04:25:15.803Z,100689.58
2019-02-17T04:27:46.640Z,100692.98
2019-02-17T04:30:28.116Z,100699.60
2019-02-17T04:32:49.649Z,100699.55
2019-02-17T04:35:20.414Z,100704.27
2019-02-17T04:37:50.915Z,100700.09
2019-02-17T04:40:21.351Z,100699.59
2019-02-17T04:42:51.799Z,100702.81
2019-02-17T04:45:22.271Z,100706.17
2019-02-17T04:47:53.181Z,100703.95
2019-02-17T04:50:24.076Z,100699.48
2019-02-17T04:52:54.554Z,100701.91
2019-02-17T04:55:25.352Z,100699.66
2019-02-17T04:57:56.216Z,100688.71
2019-02-17T05:00:26.670Z,100687.84
2019-02-17T05:02:57.159Z,100684.63
2019-02-17T05:05:27.616Z,100684.57
2019-02-17T05:07:58.057Z,100685.06
2019-02-17T05:10:28.550Z,100678.16
2019-02-17T05:12:59.362Z,100678.55
2019-02-17T05:15:30.435Z,100668.94
2019-02-17T05:18:00.924Z,100670.05
2019-02-17T05:20:31.704Z,100670.53
2019-02-17T05:23:02.146Z,100672.23
2019-02-17T05:25:32.639Z,100667.88
2019-02-17T05:28:03.089Z,100665.34
2019-02-17T05:30:33.936Z,100663.42
2019-02-17T05:33:04.414Z,100668.31
2019-02-17T05:35:34.856Z,100667.25
2019-02-17T05:38:05.359Z,100668.20
2019-02-17T05:40:36.623Z,100668.72
2019-02-17T05:43:07.957Z,100658.56
2019-02-17T05:45:38.449Z,100663.27
2019-02-17T05:48:09.925Z,100665.83
2019-02-17T05:50:40.387Z,100662.58
2019-02-17T05:53:11.686Z,100662.96
2019-02-17T05:55:42.834Z,100659.28
2019-02-17T05:58:13.278Z,100657.69
2019-02-17T06:00:44.320Z,100661.89
2019-02-17T06:03:15.157Z,100661.72
2019-02-17T06:05:45.985Z,100668.23
2019-02-17T06:08:16.763Z,100664.16
2019-02-17T06:10:47.210Z,100665.13
2019-02-17T06:13:18.331Z,100660.63
2019-02-17T06:15:48.818Z,100666.34
2019-02-17T06:18:19.262Z,100665.36
2019-02-17T06:20:49.809Z,100663.92
2019-02-17T06:23:20.416Z,100660.59
2019-02-17T06:25:51.255Z,100665.56
2019-02-17T06:28:22.067Z,100664.83
2019-02-17T06:30:52.685Z,100664.48
2019-02-17T06:33:23.478Z,100667.39
2019-02-17T06:35:53.926Z,100673.13
2019-02-17T06:38:24.374Z,100678.89
2019-02-17T06:40:55.178Z,100677.84
2019-02-17T06:43:25.791Z,100680.22
2019-02-17T06:45:56.547Z,100674.51
2019-02-17T06:48:27.367Z,100680.30
2019-02-17T06:50:58.166Z,100682.87
2019-02-17T06:53:28.954Z,100688.09
2019-02-17T06:56:04.375Z,100686.39
2019-02-17T06:58:34.883Z,100683.25
2019-02-17T07:01:05.330Z,100680.55
2019-02-17T07:03:36.052Z,100685.95
2019-02-17T07:06:22.125Z,100684.41
2019-02-17T07:08:53.094Z,100679.73
2019-02-17T07:11:24.133Z,100685.20
2019-02-17T07:13:54.916Z,100680.44
2019-02-17T07:16:25.359Z,100683.92
2019-02-17T07:18:55.810Z,100680.14
2019-02-17T07:21:26.300Z,100680.30
2019-02-17T07:23:57.086Z,100680.34
2019-02-17T07:26:27.891Z,100680.20
2019-02-17T07:28:58.378Z,100685.03
2019-02-17T07:31:34.917Z,100680.94
2019-02-17T07:34:01.358Z,100681.93
2019-02-17T07:36:31.921Z,100682.80
2019-02-17T07:39:02.371Z,100677.77
2019-02-17T07:41:33.215Z,100684.02
2019-02-17T07:44:03.728Z,100685.49
2019-02-17T07:46:34.495Z,100688.25
2019-02-17T07:49:04.966Z,100682.17
2019-02-17T07:51:35.410Z,100680.30
2019-02-17T07:54:05.970Z,100684.20
2019-02-17T07:56:36.422Z,100688.16
2019-02-17T07:59:06.909Z,100690.31
2019-02-17T08:01:45.034Z,100687.80
2019-02-17T08:04:10.198Z,100687.08
2019-02-17T08:06:40.686Z,100690.16
2019-02-17T08:09:11.467Z,100684.73
2019-02-17T08:11:42.000Z,100683.42
2019-02-17T08:14:12.490Z,100676.83
2019-02-17T08:16:43.410Z,100676.09
2019-02-17T08:19:13.870Z,100678.30
2019-02-17T08:21:44.754Z,100673.99
2019-02-17T08:24:15.855Z,100666.42
2019-02-17T08:26:46.306Z,100670.91
2019-02-17T08:29:17.469Z,100663.81
2019-02-17T08:31:55.523Z,100657.70
2019-02-17T08:34:20.459Z,100659.15
2019-02-17T08:36:51.016Z,100656.04
2019-02-17T08:39:21.549Z,100655.42
2019-02-17T08:41:52.035Z,100655.29
2019-02-17T08:44:23.591Z,100656.28
2019-02-17T08:46:54.072Z,100655.41
2019-02-17T08:49:24.575Z,100651.06
2019-02-17T08:51:55.623Z,100656.61
2019-02-17T08:54:27.353Z,100653.95
2019-02-17T08:56:57.795Z,100653.70
2019-02-17T08:59:28.555Z,100651.00
2019-02-17T09:02:05.571Z,100656.82
2019-02-17T09:04:31.146Z,100660.92
2019-02-17T09:07:01.619Z,100663.08
2019-02-17T09:09:32.069Z,100662.42
2019-02-17T09:12:02.922Z,100660.00
2019-02-17T09:14:33.381Z,100651.38
2019-02-17T09:17:04.899Z,100650.11
2019-02-17T09:19:36.091Z,100657.10
2019-02-17T09:22:06.957Z,100653.98
2019-02-17T09:24:37.825Z,100643.40
2019-02-17T09:27:08.318Z,100640.30
2019-02-17T09:29:39.146Z,100645.52
2019-02-17T09:32:16.267Z,100641.54
2019-02-17T09:34:42.195Z,100637.00
2019-02-17T09:37:12.642Z,100639.88
2019-02-17T09:39:43.483Z,100639.73
2019-02-17T09:42:14.330Z,100641.26
2019-02-17T09:44:44.780Z,100632.11
2019-02-17T09:47:15.441Z,100626.47
2019-02-17T09:49:45.902Z,100623.35
2019-02-17T09:52:17.063Z,100617.19
2019-02-17T09:54:48.010Z,100621.16
2019-02-17T09:57:18.478Z,100620.30
2019-02-17T09:59:48.928Z,100622.58
2019-02-17T10:02:26.336Z,100618.30
2019-02-17T10:04:51.580Z,100613.11
2019-02-17T10:07:22.408Z,100613.98
2019-02-17T10:09:52.938Z,100618.78
2019-02-17T10:12:24.290Z,100615.67
2019-02-17T10:14:55.436Z,100617.69
2019-02-17T10:17:25.927Z,100612.21
2019-02-17T10:19:56.380Z,100609.94
2019-02-17T10:22:27.549Z,100612.77
2019-02-17T10:24:58.781Z,100616.18
2019-02-17T10:27:29.240Z,100609.59
2019-02-17T10:29:59.696Z,100604.48
2019-02-17T10:32:37.253Z,100600.94
2019-02-17T10:35:02.363Z,100604.71
2019-02-17T10:37:34.357Z,100596.80
2019-02-17T10:40:05.895Z,100595.11
2019-02-17T10:42:36.364Z,100593.80
2019-02-17T10:45:07.291Z,100585.77
2019-02-17T10:47:37.752Z,100583.63
2019-02-17T10:50:08.923Z,100584.06
2019-02-17T10:52:39.413Z,100573.38
2019-02-17T10:55:10.342Z,100574.41
2019-02-17T10:57:41.235Z,100570.52
2019-02-17T11:00:13.801Z,100562.53
2019-02-17T11:02:47.421Z,100560.58
2019-02-17T11:05:17.257Z,100553.69
2019-02-17T11:07:48.013Z,100548.38
2019-02-17T11:10:18.621Z,100540.06
2019-02-17T11:12:49.555Z,100540.51
2019-02-17T11:15:20.256Z,100538.01
2019-02-17T11:17:51.984Z,100535.89
2019-02-17T11:20:24.455Z,100529.44
2019-02-17T11:22:55.303Z,100531.16
2019-02-17T11:25:26.195Z,100531.48
2019-02-17T11:27:57.442Z,100523.53
2019-02-17T11:30:27.978Z,100523.36
2019-02-17T11:32:58.471Z,100523.73
2019-02-17T11:35:29.986Z,100521.81
2019-02-17T11:38:00.851Z,100523.86
2019-02-17T11:40:31.306Z,100521.27
2019-02-17T11:43:02.116Z,100514.39
2019-02-17T11:45:33.437Z,100517.24
2019-02-17T11:48:04.550Z,100517.75
2019-02-17T11:50:35.070Z,100511.30
2019-02-17T11:53:05.900Z,100504.28
2019-02-17T11:55:37.032Z,100505.49
2019-02-17T11:58:07.539Z,100503.46
2019-02-17T12:00:38.561Z,100497.52
2019-02-17T12:03:09.069Z,100488.98
2019-02-17T12:05:39.524Z,100493.14
2019-02-17T12:08:10.555Z,100493.08
2019-02-17T12:10:41.080Z,100488.17
2019-02-17T12:13:11.539Z,100484.18
2019-02-17T12:15:42.056Z,100481.68
2019-02-17T12:18:12.897Z,100486.24
2019-02-17T12:20:54.247Z,100485.02
2019-02-17T12:23:37.304Z,100488.56
2019-02-17T12:26:36.272Z,100471.29
2019-02-17T12:29:31.979Z,100478.66
2019-02-17T12:32:02.502Z,100467.95
2019-02-17T12:34:32.948Z,100472.15
2019-02-17T12:37:03.406Z,100468.81
2019-02-17T12:39:34.210Z,100458.89
2019-02-17T12:42:04.655Z,100456.53
2019-02-17T12:44:35.619Z,100456.88
2019-02-17T12:47:06.295Z,100453.52
2019-02-17T12:49:37.055Z,100451.14
2019-02-17T12:52:07.511Z,100448.63
2019-02-17T12:54:38.956Z,100451.80
2019-02-17T12:57:09.444Z,100454.81
2019-02-17T12:59:40.314Z,100442.70
2019-02-17T13:02:10.813Z,100451.73
2019-02-17T13:04:41.288Z,100448.75
2019-02-17T13:07:11.749Z,100441.63
2019-02-17T13:09:43.458Z,100445.50
2019-02-17T13:12:14.397Z,100443.67
2019-02-17T13:14:44.837Z,100436.11
2019-02-17T13:17:15.316Z,100439.62
2019-02-17T13:19:46.406Z,100441.15
2019-02-17T13:22:16.897Z,100436.95
2019-02-17T13:24:47.725Z,100430.88
2019-02-17T13:27:18.193Z,100428.95
2019-02-17T13:29:48.708Z,100427.41
2019-02-17T13:32:19.519Z,100431.91
2019-02-17T13:34:50.320Z,100423.30
2019-02-17T13:37:21.577Z,100412.16
2019-02-17T13:39:52.313Z,100412.12
2019-02-17T13:42:22.768Z,100413.37
2019-02-17T13:44:53.246Z,100415.03
2019-02-17T13:47:23.710Z,100410.73
2019-02-17T13:49:54.571Z,100404.10
2019-02-17T13:52:25.026Z,100405.73
2019-02-17T13:54:55.531Z,100408.09
2019-02-17T13:57:25.989Z,100399.85
2019-02-17T13:59:56.472Z,100399.20
2019-02-17T14:02:27.294Z,100397.19
2019-02-17T14:04:57.746Z,100385.16
2019-02-17T14:07:29.279Z,100387.86
2019-02-17T14:10:00.378Z,100380.02
2019-02-17T14:12:31.126Z,100381.78
2019-02-17T14:15:01.980Z,100371.74
2019-02-17T14:17:32.724Z,100369.01
2019-02-17T14:20:03.971Z,100370.52
2019-02-17T14:22:34.871Z,100370.98
2019-02-17T14:25:05.536Z,100370.33
2019-02-17T14:27:35.996Z,100371.44
2019-02-17T14:30:07.375Z,100371.72
2019-02-17T14:32:37.830Z,100368.02
2019-02-17T14:35:08.291Z,100360.59
2019-02-17T14:37:39.503Z,100355.25
2019-02-17T14:40:10.079Z,100354.81
2019-02-17T14:42:40.603Z,100350.52
2019-02-17T14:45:11.454Z,100351.04
2019-02-17T14:47:42.290Z,100348.42
2019-02-17T14:50:13.880Z,100345.28
2019-02-17T14:52:44.343Z,100351.19
2019-02-17T14:55:16.044Z,100346.36
2019-02-17T14:57:47.027Z,100339.44
2019-02-17T15:00:17.754Z,100335.36
2019-02-17T15:02:48.621Z,100334.20
2019-02-17T15:05:19.091Z,100331.84
2019-02-17T15:07:49.595Z,100332.44
2019-02-17T15:10:20.430Z,100318.37
2019-02-17T15:12:51.049Z,100324.39
2019-02-17T15:15:21.935Z,100321.09
2019-02-17T15:17:53.183Z,100315.33
2019-02-17T15:20:24.355Z,100315.97
2019-02-17T15:22:54.832Z,100314.77
2019-02-17T15:25:25.302Z,100311.74
2019-02-17T15:27:56.132Z,100310.58
2019-02-17T15:30:26.634Z,100309.01
2019-02-17T15:33:04.138Z,100312.08
2019-02-17T15:35:29.676Z,100311.41
2019-02-17T15:38:00.195Z,100305.56
2019-02-17T15:40:32.071Z,100306.61
2019-02-17T15:43:03.464Z,100305.14
2019-02-17T15:45:35.333Z,100302.02
2019-02-17T15:48:05.789Z,100301.67
2019-02-17T15:50:36.240Z,100307.97
2019-02-17T15:53:07.086Z,100300.97
2019-02-17T15:55:37.852Z,100298.95
2019-02-17T15:58:08.381Z,100296.00
2019-02-17T16:00:38.876Z,100298.87
2019-02-17T16:03:09.332Z,100295.57
2019-02-17T16:05:39.843Z,100295.73
2019-02-17T16:08:10.684Z,100297.76
2019-02-17T16:10:41.530Z,100299.45
2019-02-17T16:13:12.019Z,100297.45
2019-02-17T16:15:43.274Z,100294.94
2019-02-17T16:18:14.869Z,100292.27
2019-02-17T16:20:45.631Z,100285.55
2019-02-17T16:23:16.077Z,100292.23
2019-02-17T16:25:46.598Z,100285.19
2019-02-17T16:28:17.322Z,100288.87
2019-02-17T16:30:47.784Z,100282.50
2019-02-17T16:33:18.299Z,100285.33
2019-02-17T16:35:48.760Z,100286.14
2019-02-17T16:38:19.232Z,100297.41
2019-02-17T16:40:49.760Z,100292.50
2019-02-17T16:43:20.539Z,100298.37
2019-02-17T16:45:50.991Z,100306.06
2019-02-17T16:48:21.469Z,100296.97
2019-02-17T16:50:52.248Z,100301.44
2019-02-17T16:53:23.197Z,100303.61
2019-02-17T16:55:53.718Z,100303.26
2019-02-17T16:58:24.536Z,100298.19
2019-02-17T17:00:55.019Z,100306.05
2019-02-17T17:03:25.469Z,100304.12
2019-02-17T17:05:55.992Z,100307.61
2019-02-17T17:08:26.460Z,100312.00
2019-02-17T17:10:56.912Z,100314.17
2019-02-17T17:13:27.435Z,100311.88
2019-02-17T17:15:58.770Z,100315.48
2019-02-17T17:18:29.238Z,100314.13
2019-02-17T17:20:59.901Z,100309.17
2019-02-17T17:23:30.372Z,100307.64
2019-02-17T17:26:00.900Z,100307.98
2019-02-17T17:28:31.363Z,100301.42
2019-02-17T17:31:01.820Z,100302.04
2019-02-17T17:33:32.331Z,100301.34
2019-02-17T17:36:03.129Z,100297.45
2019-02-17T17:38:33.587Z,100308.96
2019-02-17T17:41:04.102Z,100309.02
2019-02-17T17:43:35.051Z,100309.78
2019-02-17T17:46:05.576Z,100304.94
2019-02-17T17:48:41.860Z,100304.42
2019-02-17T17:51:12.634Z,100304.42
2019-02-17T17:53:44.903Z,100305.13
2019-02-17T17:56:15.398Z,100301.87
2019-02-17T17:58:45.847Z,100297.06
2019-02-17T18:01:16.388Z,100304.72
2019-02-17T18:03:46.848Z,100301.34
2019-02-17T18:06:25.507Z,100300.83
2019-02-17T18:08:55.987Z,100297.83
2019-02-17T18:11:26.452Z,100300.16
2019-02-17T18:13:57.525Z,100300.32
2019-02-17T18:16:28.388Z,100304.34
2019-02-17T18:18:59.642Z,100299.94
2019-02-17T18:21:30.090Z,100299.88
2019-02-17T18:24:00.867Z,100299.72
2019-02-17T18:26:32.055Z,100291.75
2019-02-17T18:29:02.885Z,100294.63
2019-02-17T18:31:35.124Z,100290.09
2019-02-17T18:34:05.604Z,100292.42
2019-02-17T18:36:36.094Z,100294.78
2019-02-17T18:39:09.431Z,100297.02
2019-02-17T18:41:42.318Z,100291.42
2019-02-17T18:44:13.339Z,100289.23
2019-02-17T18:46:44.394Z,100294.87
2019-02-17T18:49:16.624Z,100288.16
2019-02-17T18:51:47.456Z,100293.31
2019-02-17T18:54:17.905Z,100293.58
2019-02-17T18:56:48.673Z,100295.86
2019-02-17T18:59:19.181Z,100297.05
2019-02-17T19:01:53.098Z,100289.97
2019-02-17T19:04:25.905Z,100300.17
2019-02-17T19:06:58.141Z,100302.50
2019-02-17T19:09:28.592Z,100305.41
2019-02-17T19:11:59.499Z,100299.38
2019-02-17T19:14:30.379Z,100298.24
2019-02-17T19:17:00.859Z,100300.21
2019-02-17T19:19:31.339Z,100296.75
2019-02-17T19:22:02.179Z,100292.47
2019-02-17T19:24:33.167Z,100295.93
2019-02-17T19:27:03.930Z,100294.55
2019-02-17T19:29:35.208Z,100287.20
2019-02-17T19:32:05.674Z,100287.16
2019-02-17T19:34:36.623Z,100284.25
2019-02-17T19:37:07.111Z,100284.24
2019-02-17T19:39:40.867Z,100296.21
2019-02-17T19:42:11.751Z,100295.14
2019-02-17T19:44:43.752Z,100295.66
2019-02-17T19:47:14.206Z,100292.74
2019-02-17T19:49:44.697Z,100295.22
2019-02-17T19:52:17.779Z,100290.86
2019-02-17T19:54:48.765Z,100285.63
2019-02-17T19:57:19.591Z,100284.63
2019-02-17T19:59:50.050Z,100292.80
2019-02-17T20:02:33.714Z,100291.47
2019-02-17T20:05:14.387Z,100295.34
2019-02-17T20:07:44.872Z,100299.03
2019-02-17T20:10:16.868Z,100300.45
2019-02-17T20:12:47.319Z,100306.84
2019-02-17T20:15:20.910Z,100308.39
2019-02-17T20:17:52.314Z,100305.72
2019-02-17T20:20:24.296Z,100306.16
2019-02-17T20:22:55.063Z,100299.70
2019-02-17T20:25:25.518Z,100305.56
2019-02-17T20:27:56.804Z,100301.83
2019-02-17T20:30:27.269Z,100305.80
2019-02-17T20:32:58.144Z,100313.16
2019-02-17T20:35:29.363Z,100312.05
2019-02-17T20:38:00.203Z,100313.30
2019-02-17T20:40:31.075Z,100311.01
2019-02-17T20:43:01.879Z,100312.84
2019-02-17T20:45:32.392Z,100311.81
2019-02-17T20:48:03.261Z,100315.93
2019-02-17T20:50:36.815Z,100319.19
2019-02-17T20:53:07.566Z,100314.92
2019-02-17T20:55:40.518Z,100311.94
2019-02-17T20:58:11.062Z,100318.67
2019-02-17T21:00:41.581Z,100311.80
2019-02-17T21:03:12.054Z,100318.16
2019-02-17T21:05:42.933Z,100314.91
2019-02-17T21:08:13.395Z,100315.07
2019-02-17T21:10:45.266Z,100314.47
2019-02-17T21:13:15.720Z,100316.30
2019-02-17T21:15:46.496Z,100315.02
2019-02-17T21:18:16.965Z,100316.61
2019-02-17T21:20:47.417Z,100313.64
2019-02-17T21:23:17.985Z,100311.58
2019-02-17T21:25:48.449Z,100321.80
2019-02-17T21:28:18.974Z,100319.66
2019-02-17T21:30:50.692Z,100316.25
2019-02-17T21:33:21.295Z,100321.80
2019-02-17T21:35:54.247Z,100315.16
2019-02-17T21:38:24.706Z,100324.09
2019-02-17T21:40:55.886Z,100325.01
2019-02-17T21:43:26.790Z,100318.56
2019-02-17T21:45:58.073Z,100322.57
2019-02-17T21:48:28.563Z,100323.95
2019-02-17T21:50:59.009Z,100319.89
2019-02-17T21:53:29.466Z,100317.50
2019-02-17T21:55:59.951Z,100311.48
2019-02-17T21:58:30.411Z,100315.67
2019-02-17T22:01:03.204Z,100318.34
2019-02-17T22:03:33.406Z,100320.04
2019-02-17T22:06:03.875Z,100316.80
2019-02-17T22:08:34.386Z,100318.51
2019-02-17T22:11:04.839Z,100318.70
2019-02-17T22:13:35.670Z,100316.11
2019-02-17T22:16:06.173Z,100313.80
2019-02-17T22:18:37.484Z,100312.69
2019-02-17T22:21:08.599Z,100312.88
2019-02-17T22:23:40.094Z,100309.45
2019-02-17T22:26:10.608Z,100310.63
2019-02-17T22:28:41.094Z,100304.72
2019-02-17T22:31:13.589Z,100304.19
2019-02-17T22:33:44.121Z,100305.63
2019-02-17T22:36:14.586Z,100314.86
2019-02-17T22:38:45.029Z,100309.99
2019-02-17T22:41:15.512Z,100314.86
2019-02-17T22:43:46.027Z,100311.25
2019-02-17T22:46:17.175Z,100310.43
2019-02-17T22:48:48.029Z,100315.98
2019-02-17T22:51:18.465Z,100319.05
2019-02-17T22:53:49.291Z,100315.62
2019-02-17T22:56:19.783Z,100323.62
2019-02-17T22:58:50.239Z,100325.50
2019-02-17T23:01:26.607Z,100327.05
2019-02-17T23:03:57.362Z,100327.05
2019-02-17T23:06:27.807Z,100327.88
2019-02-17T23:08:58.673Z,100321.14
2019-02-17T23:11:29.109Z,100320.48
2019-02-17T23:13:59.905Z,100322.07
2019-02-17T23:16:30.341Z,100321.85
2019-02-17T23:19:01.174Z,100324.44
2019-02-17T23:21:31.660Z,100325.82
2019-02-17T23:24:02.089Z,100324.20
2019-02-17T23:26:32.813Z,100323.08
2019-02-17T23:29:03.315Z,100325.03
2019-02-17T23:31:34.077Z,100320.88
2019-02-17T23:34:04.518Z,100320.30
2019-02-17T23:36:35.392Z,100325.33
2019-02-17T23:39:07.648Z,100328.06
2019-02-17T23:41:38.089Z,100330.74
2019-02-17T23:44:08.581Z,100333.11
2019-02-17T23:46:39.142Z,100329.73
2019-02-17T23:49:09.579Z,100330.35
2019-02-17T23:51:40.440Z,100326.97
2019-02-17T23:54:10.883Z,100321.38
2019-02-17T23:56:41.325Z,100321.81
2019-02-17T23:59:12.160Z,100321.99
